createdAt,value
2022-08-03T00:00:20.689Z,102014.63
2022-08-03T00:02:47.237Z,102009.25
2022-08-03T00:05:13.750Z,102004.97
2022-08-03T00:07:41.113Z,101992.84
2022-08-03T00:10:07.990Z,101983.16
2022-08-03T00:12:36.342Z,101977.88
2022-08-03T00:15:03.457Z,101967.56
2022-08-03T00:17:53.066Z,101946.22
2022-08-03T00:20:21.280Z,101936.38
2022-08-03T00:22:47.844Z,101907.69
2022-08-03T00:25:14.373Z,101896.56
2022-08-03T00:27:40.867Z,101870.75
2022-08-03T00:30:08.251Z,101844.94
2022-08-03T00:32:34.723Z,101811.03
2022-08-03T00:35:01.167Z,101782.06
2022-08-03T00:37:40.747Z,101765.81
2022-08-03T00:40:10.510Z,101735.16
2022-08-03T00:42:47.078Z,101709.00
2022-08-03T00:45:13.625Z,101685.81
2022-08-03T00:47:40.528Z,101659.94
2022-08-03T00:50:07.245Z,101634.28
2022-08-03T00:52:34.843Z,101624.78
2022-08-03T00:55:02.604Z,101606.72
2022-08-03T00:57:31.700Z,101584.75
2022-08-03T01:00:00.058Z,101574.72
2022-08-03T01:02:28.524Z,101552.72
2022-08-03T01:04:56.125Z,101540.78
2022-08-03T01:07:33.722Z,101522.44
2022-08-03T01:10:10.142Z,101507.69
2022-08-03T01:12:49.746Z,101496.34
2022-08-03T01:15:24.904Z,101493.78
2022-08-03T01:18:03.360Z,101482.44
2022-08-03T01:20:34.096Z,101475.72
2022-08-03T01:23:19.515Z,101464.63
2022-08-03T01:26:23.525Z,101457.81
2022-08-03T01:29:21.516Z,101450.22
2022-08-03T01:32:58.802Z,101445.63
2022-08-03T01:34:52.996Z,101442.94
2022-08-03T01:37:26.429Z,101438.53
2022-08-03T01:39:56.399Z,101442.19
2022-08-03T01:42:24.009Z,101432.91
2022-08-03T01:44:52.226Z,101429.25
2022-08-03T01:47:22.435Z,101425.59
2022-08-03T01:49:50.667Z,101421.09
2022-08-03T01:52:18.506Z,101435.72
2022-08-03T01:54:48.596Z,101430.88
2022-08-03T01:57:16.590Z,101426.97
2022-08-03T01:59:45.147Z,101427.31
2022-08-03T02:02:27.941Z,101420.72
2022-08-03T02:05:01.756Z,101414.22
2022-08-03T02:07:30.402Z,101416.81
2022-08-03T02:09:58.444Z,101413.41
2022-08-03T02:12:28.291Z,101423.88
2022-08-03T02:14:56.520Z,101415.84
2022-08-03T02:17:39.112Z,101416.97
2022-08-03T02:20:11.309Z,101403.16
2022-08-03T02:22:41.009Z,101406.13
2022-08-03T02:25:12.969Z,101408.09
2022-08-03T02:27:56.447Z,101404.19
2022-08-03T02:30:29.804Z,101411.94
2022-08-03T02:32:59.328Z,101402.16
2022-08-03T02:35:29.459Z,101392.69
2022-08-03T02:38:02.750Z,101392.91
2022-08-03T02:40:31.354Z,101397.59
2022-08-03T02:43:07.559Z,101392.91
2022-08-03T02:45:45.346Z,101394.00
2022-08-03T02:48:12.897Z,101386.56
2022-08-03T02:50:39.969Z,101387.31
2022-08-03T02:53:07.880Z,101381.94
2022-08-03T02:55:35.787Z,101389.66
2022-08-03T02:58:11.711Z,101393.19
2022-08-03T03:00:39.921Z,101385.63
2022-08-03T03:03:06.532Z,101386.47
2022-08-03T03:05:54.804Z,101388.44
2022-08-03T03:08:25.963Z,101382.91
2022-08-03T03:10:59.367Z,101379.72
2022-08-03T03:13:28.605Z,101382.53
2022-08-03T03:15:57.576Z,101374.53
2022-08-03T03:18:25.358Z,101388.06
2022-08-03T03:20:53.209Z,101380.41
2022-08-03T03:23:22.187Z,101380.75
2022-08-03T03:25:49.827Z,101392.69
2022-08-03T03:28:16.907Z,101381.94
2022-08-03T03:30:43.817Z,101386.78
2022-08-03T03:33:10.496Z,101386.28
2022-08-03T03:35:39.147Z,101389.72
2022-08-03T03:38:06.768Z,101385.56
2022-08-03T03:40:35.559Z,101383.63
2022-08-03T03:43:02.793Z,101392.69
2022-08-03T03:45:31.079Z,101382.88
2022-08-03T03:47:59.575Z,101386.28
2022-08-03T03:50:27.408Z,101380.91
2022-08-03T03:52:53.931Z,101382.75
2022-08-03T03:55:20.413Z,101377.75
2022-08-03T03:57:46.934Z,101387.75
2022-08-03T04:00:14.844Z,101382.88
2022-08-03T04:02:41.457Z,101383.75
2022-08-03T04:05:27.424Z,101380.91
2022-08-03T04:08:30.803Z,101388.25
2022-08-03T04:11:15.524Z,101390.94
2022-08-03T04:14:06.424Z,101395.09
2022-08-03T04:16:38.011Z,101391.63
2022-08-03T04:19:24.708Z,101396.75
2022-08-03T04:21:57.133Z,101399.97
2022-08-03T04:24:27.074Z,101388.09
2022-08-03T04:26:55.770Z,101387.44
2022-08-03T04:29:22.619Z,101384.38
2022-08-03T04:31:50.636Z,101389.16
2022-08-03T04:34:17.515Z,101388.06
2022-08-03T04:36:58.451Z,101381.44
2022-08-03T04:39:26.718Z,101369.91
2022-08-03T04:42:07.931Z,101372.41
2022-08-03T04:44:41.090Z,101373.97
2022-08-03T04:47:08.284Z,101373.97
2022-08-03T04:49:36.769Z,101373.47
2022-08-03T04:52:04.532Z,101375.06
2022-08-03T04:54:31.266Z,101358.22
2022-08-03T04:56:57.704Z,101369.31
2022-08-03T04:59:24.183Z,101358.84
2022-08-03T05:01:50.767Z,101367.06
2022-08-03T05:04:17.273Z,101369.19
2022-08-03T05:06:48.121Z,101355.72
2022-08-03T05:09:49.857Z,101364.38
2022-08-03T05:12:08.359Z,101362.78
2022-08-03T05:14:37.664Z,101354.81
2022-08-03T05:17:08.919Z,101354.28
2022-08-03T05:19:35.409Z,101359.97
2022-08-03T05:22:01.861Z,101361.94
2022-08-03T05:24:28.350Z,101369.59
2022-08-03T05:26:54.855Z,101369.03
2022-08-03T05:29:21.310Z,101360.53
2022-08-03T05:31:47.877Z,101367.88
2022-08-03T05:34:14.369Z,101367.88
2022-08-03T05:36:41.159Z,101362.78
2022-08-03T05:39:07.667Z,101363.91
2022-08-03T05:41:37.045Z,101358.38
2022-08-03T05:44:04.380Z,101363.31
2022-08-03T05:46:30.872Z,101361.63
2022-08-03T05:48:57.445Z,101355.81
2022-08-03T05:51:23.927Z,101344.97
2022-08-03T05:53:50.509Z,101358.72
2022-08-03T05:56:17.197Z,101346.63
2022-08-03T05:58:45.441Z,101349.19
2022-08-03T06:01:11.965Z,101335.94
2022-08-03T06:03:38.532Z,101338.25
2022-08-03T06:06:05.080Z,101337.00
2022-08-03T06:08:31.576Z,101341.09
2022-08-03T06:10:58.103Z,101335.41
2022-08-03T06:13:24.563Z,101333.09
2022-08-03T06:15:51.033Z,101323.44
2022-08-03T06:18:17.839Z,101325.97
2022-08-03T06:20:44.385Z,101322.81
2022-08-03T06:23:17.825Z,101330.59
2022-08-03T06:25:45.216Z,101331.59
2022-08-03T06:28:35.402Z,101327.66
2022-08-03T06:31:00.919Z,101320.91
2022-08-03T06:33:48.564Z,101326.94
2022-08-03T06:36:14.008Z,101323.38
2022-08-03T06:38:40.447Z,101314.28
2022-08-03T06:41:06.924Z,101321.19
2022-08-03T06:43:37.470Z,101316.81
2022-08-03T06:46:05.410Z,101320.63
2022-08-03T06:48:32.002Z,101310.84
2022-08-03T06:50:59.169Z,101314.22
2022-08-03T06:53:25.652Z,101310.94
2022-08-03T06:55:54.940Z,101303.53
2022-08-03T06:58:22.291Z,101298.88
2022-08-03T07:00:48.783Z,101308.66
2022-08-03T07:03:16.085Z,101317.00
2022-08-03T07:05:43.529Z,101301.19
2022-08-03T07:08:10.099Z,101303.06
2022-08-03T07:10:37.120Z,101319.22
2022-08-03T07:13:04.456Z,101305.34
2022-08-03T07:15:54.560Z,101312.03
2022-08-03T07:18:17.618Z,101317.22
2022-08-03T07:20:54.783Z,101312.00
2022-08-03T07:23:21.259Z,101311.16
2022-08-03T07:25:47.739Z,101307.94
2022-08-03T07:28:14.341Z,101316.94
2022-08-03T07:30:40.874Z,101317.59
2022-08-03T07:33:07.432Z,101310.84
2022-08-03T07:35:33.972Z,101330.84
2022-08-03T07:38:00.549Z,101319.16
2022-08-03T07:40:31.488Z,101330.00
2022-08-03T07:42:58.350Z,101322.41
2022-08-03T07:45:26.414Z,101324.75
2022-08-03T07:47:53.580Z,101323.03
2022-08-03T07:50:21.002Z,101335.56
2022-08-03T07:52:51.681Z,101335.53
2022-08-03T07:55:20.551Z,101333.63
2022-08-03T07:57:48.066Z,101347.00
2022-08-03T08:00:17.457Z,101341.25
2022-08-03T08:02:44.547Z,101347.53
2022-08-03T08:05:12.552Z,101346.28
2022-08-03T08:07:39.892Z,101357.91
2022-08-03T08:10:10.564Z,101354.44
2022-08-03T08:12:39.262Z,101373.13
2022-08-03T08:15:06.933Z,101374.28
2022-08-03T08:17:54.711Z,101399.94
2022-08-03T08:20:28.310Z,101412.69
2022-08-03T08:22:59.121Z,101419.28
2022-08-03T08:25:28.249Z,101438.63
2022-08-03T08:28:29.547Z,101440.28
2022-08-03T08:30:41.379Z,101452.44
2022-08-03T08:33:08.749Z,101463.03
2022-08-03T08:35:48.877Z,101471.31
2022-08-03T08:38:15.326Z,101471.50
2022-08-03T08:40:41.784Z,101481.00
2022-08-03T08:43:08.281Z,101475.56
2022-08-03T08:45:35.071Z,101472.84
2022-08-03T08:48:07.871Z,101471.44
2022-08-03T08:50:37.475Z,101469.38
2022-08-03T08:53:07.041Z,101479.53
2022-08-03T08:55:59.251Z,101481.59
2022-08-03T08:58:24.471Z,101492.66
2022-08-03T09:00:51.555Z,101486.97
2022-08-03T09:03:29.169Z,101498.94
2022-08-03T09:05:58.995Z,101492.81
2022-08-03T09:08:25.978Z,101499.59
2022-08-03T09:10:52.517Z,101494.66
2022-08-03T09:13:19.458Z,101493.50
2022-08-03T09:15:57.274Z,101497.84
2022-08-03T09:18:32.536Z,101504.22
2022-08-03T09:21:38.301Z,101489.66
2022-08-03T09:24:13.025Z,101498.19
2022-08-03T09:26:53.765Z,101494.91
2022-08-03T09:29:21.713Z,101492.88
2022-08-03T09:31:48.297Z,101504.41
2022-08-03T09:34:17.510Z,101493.94
2022-08-03T09:36:49.113Z,101517.38
2022-08-03T09:39:40.823Z,101502.00
2022-08-03T09:42:23.942Z,101499.56
2022-08-03T09:44:52.226Z,101495.03
2022-08-03T09:47:29.460Z,101497.78
2022-08-03T09:50:02.141Z,101504.06
2022-08-03T09:52:49.641Z,101501.78
2022-08-03T09:56:30.666Z,101511.28
2022-08-03T09:58:09.446Z,101506.34
2022-08-03T10:00:54.784Z,101507.34
2022-08-03T10:03:22.256Z,101512.69
2022-08-03T10:05:48.721Z,101523.34
2022-08-03T10:08:17.051Z,101524.81
2022-08-03T10:10:45.502Z,101503.97
2022-08-03T10:13:14.151Z,101510.75
2022-08-03T10:16:23.662Z,101500.50
2022-08-03T10:18:27.701Z,101502.13
2022-08-03T10:20:58.954Z,101501.03
2022-08-03T10:23:25.670Z,101505.81
2022-08-03T10:25:57.876Z,101495.00
2022-08-03T10:28:24.916Z,101490.78
2022-08-03T10:30:54.976Z,101474.47
2022-08-03T10:33:49.814Z,101506.94
2022-08-03T10:36:14.258Z,101498.50
2022-08-03T10:38:47.772Z,101506.81
2022-08-03T10:41:16.735Z,101504.44
2022-08-03T10:43:52.923Z,101496.16
2022-08-03T10:46:21.237Z,101485.72
2022-08-03T10:48:50.582Z,101487.09
2022-08-03T10:51:17.362Z,101495.09
2022-08-03T10:53:51.504Z,101485.63
2022-08-03T10:56:53.549Z,101500.56
2022-08-03T10:59:46.137Z,101479.81
2022-08-03T11:02:15.855Z,101460.28
2022-08-03T11:04:42.821Z,101438.84
2022-08-03T11:07:18.724Z,101427.13
2022-08-03T11:09:48.637Z,101424.41
2022-08-03T11:12:32.797Z,101405.97
2022-08-03T11:15:02.779Z,101355.94
2022-08-03T11:17:29.641Z,101353.13
2022-08-03T11:19:57.494Z,101345.50
2022-08-03T11:22:25.357Z,101339.28
2022-08-03T11:24:54.055Z,101331.44
2022-08-03T11:27:25.059Z,101360.81
2022-08-03T11:30:11.092Z,101391.94
2022-08-03T11:32:37.527Z,101397.69
2022-08-03T11:35:09.038Z,101400.38
2022-08-03T11:37:36.319Z,101385.00
2022-08-03T11:40:03.797Z,101354.00
2022-08-03T11:42:33.225Z,101374.91
2022-08-03T11:45:00.819Z,101372.31
2022-08-03T11:47:29.541Z,101306.19
2022-08-03T11:50:00.099Z,101315.88
2022-08-03T11:52:28.831Z,101269.06
2022-08-03T11:54:56.701Z,101307.91
2022-08-03T11:58:58.163Z,101323.28
2022-08-03T12:00:25.992Z,101276.63
2022-08-03T12:03:13.660Z,101311.22
2022-08-03T12:05:51.272Z,101324.53
2022-08-03T12:08:27.863Z,101346.06
2022-08-03T12:10:56.312Z,101321.81
2022-08-03T12:14:27.419Z,101285.25
2022-08-03T12:16:10.683Z,101277.94
2022-08-03T12:18:37.524Z,101212.59
2022-08-03T12:21:10.335Z,101206.94
2022-08-03T12:23:38.472Z,101204.50
2022-08-03T12:26:10.129Z,101186.38
2022-08-03T12:28:38.416Z,101167.84
2022-08-03T12:31:11.805Z,101166.78
2022-08-03T12:34:07.931Z,101115.38
2022-08-03T12:36:35.667Z,101083.22
2022-08-03T12:39:05.778Z,101132.16
2022-08-03T12:41:35.314Z,101085.06
2022-08-03T12:44:03.639Z,101052.25
2022-08-03T12:46:46.970Z,101012.88
2022-08-03T12:49:17.133Z,101143.66
2022-08-03T12:51:43.613Z,101129.47
2022-08-03T12:54:17.468Z,101104.50
2022-08-03T12:57:03.767Z,101198.25
2022-08-03T12:59:53.788Z,101228.56
2022-08-03T13:02:26.284Z,101137.13
2022-08-03T13:04:54.859Z,101237.00
2022-08-03T13:07:22.307Z,101292.72
2022-08-03T13:09:51.286Z,101329.72
2022-08-03T13:12:20.961Z,101303.59
2022-08-03T13:14:50.054Z,101326.22
2022-08-03T13:17:17.015Z,101358.63
2022-08-03T13:19:43.790Z,101381.63
2022-08-03T13:22:22.075Z,101338.13
2022-08-03T13:24:52.803Z,101256.41
2022-08-03T13:28:09.863Z,101285.09
2022-08-03T13:30:07.719Z,101272.72
2022-08-03T13:32:34.562Z,101325.25
2022-08-03T13:35:02.749Z,101332.56
2022-08-03T13:37:32.356Z,101277.69
2022-08-03T13:40:02.953Z,101303.25
2022-08-03T13:42:32.419Z,101277.22
2022-08-03T13:44:59.429Z,101263.69
2022-08-03T13:47:26.808Z,101250.13
2022-08-03T13:49:56.945Z,101257.41
2022-08-03T13:52:29.319Z,101328.56
2022-08-03T13:54:55.768Z,101366.06
2022-08-03T13:58:06.505Z,101313.81
2022-08-03T14:00:09.612Z,101201.91
2022-08-03T14:02:37.936Z,101260.78
2022-08-03T14:05:04.772Z,101240.31
2022-08-03T14:07:31.284Z,101216.78
2022-08-03T14:09:57.789Z,101132.72
2022-08-03T14:12:24.256Z,101113.94
2022-08-03T14:14:50.726Z,101153.16
2022-08-03T14:17:17.281Z,101273.72
2022-08-03T14:19:53.490Z,101282.25
2022-08-03T14:22:21.102Z,101199.88
2022-08-03T14:24:47.712Z,101095.66
2022-08-03T14:27:16.425Z,101175.69
2022-08-03T14:29:43.055Z,101271.59
2022-08-03T14:32:13.151Z,101116.00
2022-08-03T14:34:40.925Z,101011.50
2022-08-03T14:37:07.710Z,100991.94
2022-08-03T14:42:21.455Z,101313.25
2022-08-03T14:44:48.003Z,101390.94
2022-08-03T14:47:14.814Z,101365.06
2022-08-03T14:50:32.631Z,101297.44
2022-08-03T14:52:28.217Z,101313.97
2022-08-03T14:54:54.748Z,101369.59
2022-08-03T14:57:21.487Z,101440.03
2022-08-03T14:59:55.627Z,101420.69
2022-08-03T15:02:25.055Z,101271.03
2022-08-03T15:04:52.503Z,101260.28
2022-08-03T15:07:20.345Z,101320.72
2022-08-03T15:09:47.226Z,101326.91
2022-08-03T15:12:13.937Z,101326.34
2022-08-03T15:14:40.449Z,101283.34
2022-08-03T15:17:07.527Z,101325.84
2022-08-03T15:20:02.293Z,101330.34
2022-08-03T15:22:24.779Z,101404.53
2022-08-03T15:24:51.687Z,101467.44
2022-08-03T15:27:18.323Z,101410.28
2022-08-03T15:30:06.029Z,101358.13
2022-08-03T15:32:31.453Z,101353.03
2022-08-03T15:34:58.011Z,101320.38
2022-08-03T15:37:25.795Z,101310.34
2022-08-03T15:39:59.805Z,101329.97
2022-08-03T15:42:27.044Z,101301.16
2022-08-03T15:44:54.470Z,101260.50
2022-08-03T15:47:21.519Z,101272.88
2022-08-03T15:49:48.230Z,101354.84
2022-08-03T15:52:14.671Z,101358.34
2022-08-03T15:54:41.290Z,101346.13
2022-08-03T15:57:07.824Z,101376.31
2022-08-03T15:59:34.382Z,101336.22
2022-08-03T16:02:00.956Z,101342.03
2022-08-03T16:04:27.543Z,101306.06
2022-08-03T16:06:54.058Z,101273.00
2022-08-03T16:09:23.899Z,101260.94
2022-08-03T16:12:14.509Z,101308.03
2022-08-03T16:14:51.955Z,101343.16
2022-08-03T16:17:20.417Z,101409.88
2022-08-03T16:19:47.162Z,101408.19
2022-08-03T16:22:14.351Z,101408.56
2022-08-03T16:24:41.241Z,101393.56
2022-08-03T16:27:22.372Z,101395.75
2022-08-03T16:29:54.306Z,101382.88
2022-08-03T16:32:20.867Z,101270.53
2022-08-03T16:34:48.166Z,101291.00
2022-08-03T16:37:37.533Z,101355.28
2022-08-03T16:40:02.596Z,101320.56
2022-08-03T16:42:29.579Z,101313.63
2022-08-03T16:44:56.040Z,101301.41
2022-08-03T16:47:23.024Z,101337.50
2022-08-03T16:49:54.965Z,101298.09
2022-08-03T16:52:23.670Z,101243.94
2022-08-03T16:54:52.877Z,101207.56
2022-08-03T16:57:55.773Z,101228.69
2022-08-03T17:00:10.356Z,101136.50
2022-08-03T17:02:37.781Z,101129.00
2022-08-03T17:05:04.802Z,101132.00
2022-08-03T17:07:31.281Z,101165.56
2022-08-03T17:09:58.047Z,101225.97
2022-08-03T17:12:26.935Z,101211.63
2022-08-03T17:14:54.253Z,101135.72
2022-08-03T17:17:30.101Z,101068.88
2022-08-03T17:20:11.687Z,101094.97
2022-08-03T17:23:06.687Z,101121.66
2022-08-03T17:26:02.406Z,101283.22
2022-08-03T17:28:48.180Z,101351.91
2022-08-03T17:31:23.554Z,101337.66
2022-08-03T17:34:00.697Z,101353.56
2022-08-03T17:36:47.685Z,101280.75
2022-08-03T17:39:30.933Z,101319.06
2022-08-03T17:42:31.163Z,101295.88
2022-08-03T17:44:55.254Z,101247.28
2022-08-03T17:47:22.927Z,101293.59
2022-08-03T17:49:56.856Z,101336.13
2022-08-03T17:52:48.370Z,101402.28
2022-08-03T17:55:56.823Z,101429.44
2022-08-03T17:58:25.533Z,101514.94
2022-08-03T18:01:56.948Z,101532.38
2022-08-03T18:04:10.627Z,101551.56
2022-08-03T18:06:55.641Z,101560.91
2022-08-03T18:10:04.729Z,101583.31
2022-08-03T18:12:24.298Z,101580.97
2022-08-03T18:15:01.213Z,101582.88
2022-08-03T18:17:55.428Z,101593.50
2022-08-03T18:20:32.145Z,101590.34
2022-08-03T18:23:04.781Z,101592.19
2022-08-03T18:25:42.297Z,101584.16
2022-08-03T18:28:16.587Z,101578.53
2022-08-03T18:30:54.010Z,101580.84
2022-08-03T18:34:20.036Z,101585.78
2022-08-03T18:36:18.061Z,101585.69
2022-08-03T18:38:50.955Z,101582.31
2022-08-03T18:41:31.817Z,101583.72
2022-08-03T18:44:07.901Z,101579.22
2022-08-03T18:46:50.309Z,101573.47
2022-08-03T18:49:45.670Z,101556.22
2022-08-03T18:52:26.879Z,101548.53
2022-08-03T18:55:14.069Z,101533.31
2022-08-03T18:57:55.434Z,101525.47
2022-08-03T19:00:42.700Z,101509.34
2022-08-03T19:03:20.446Z,101498.88
2022-08-03T19:06:05.948Z,101492.94
2022-08-03T19:08:47.851Z,101493.44
2022-08-03T19:11:28.259Z,101463.59
2022-08-03T19:13:59.186Z,101458.16
2022-08-03T19:16:35.822Z,101441.97
2022-08-03T19:19:10.338Z,101436.03
2022-08-03T19:21:41.189Z,101422.38
2022-08-03T19:24:09.910Z,101415.19
2022-08-03T19:26:39.560Z,101411.47
2022-08-03T19:29:10.838Z,101412.97
2022-08-03T19:31:58.771Z,101419.59
2022-08-03T19:34:29.191Z,101421.53
2022-08-03T19:36:58.508Z,101403.19
2022-08-03T19:39:25.741Z,101405.16
2022-08-03T19:42:07.962Z,101395.84
2022-08-03T19:44:42.845Z,101388.00
2022-08-03T19:47:20.063Z,101379.72
2022-08-03T19:50:10.313Z,101375.38
2022-08-03T19:52:39.442Z,101361.25
2022-08-03T19:55:12.362Z,101361.41
2022-08-03T19:57:42.228Z,101367.69
2022-08-03T20:00:12.469Z,101347.63
2022-08-03T20:02:41.466Z,101344.09
2022-08-03T20:05:15.120Z,101342.53
2022-08-03T20:07:47.808Z,101346.97
2022-08-03T20:10:16.119Z,101350.72
2022-08-03T20:12:44.106Z,101349.84
2022-08-03T20:15:11.152Z,101348.50
2022-08-03T20:17:56.418Z,101355.31
2022-08-03T20:20:28.699Z,101363.38
2022-08-03T20:22:57.936Z,101366.88
2022-08-03T20:25:38.349Z,101376.59
2022-08-03T20:28:15.068Z,101369.94
2022-08-03T20:30:43.751Z,101376.91
2022-08-03T20:33:10.529Z,101370.78
2022-08-03T20:35:37.147Z,101371.31
2022-08-03T20:38:03.739Z,101358.88
2022-08-03T20:40:30.253Z,101354.59
2022-08-03T20:42:56.875Z,101359.75
2022-08-03T20:45:58.512Z,101356.09
2022-08-03T20:48:10.575Z,101357.16
2022-08-03T20:50:40.888Z,101345.88
2022-08-03T20:53:12.021Z,101346.47
2022-08-03T20:55:47.608Z,101349.78
2022-08-03T20:58:25.699Z,101337.53
2022-08-03T21:00:54.345Z,101337.44
2022-08-03T21:03:20.741Z,101321.25
2022-08-03T21:05:51.841Z,101308.53
2022-08-03T21:08:22.501Z,101317.06
2022-08-03T21:10:52.617Z,101313.84
2022-08-03T21:13:29.172Z,101319.94
2022-08-03T21:16:13.101Z,101328.88
2022-08-03T21:18:52.755Z,101335.41
2022-08-03T21:21:22.311Z,101354.56
2022-08-03T21:23:53.693Z,101367.06
2022-08-03T21:26:22.913Z,101380.66
2022-08-03T21:28:51.431Z,101380.53
2022-08-03T21:31:25.203Z,101390.31
2022-08-03T21:34:04.327Z,101411.16
2022-08-03T21:36:34.915Z,101410.41
2022-08-03T21:39:03.273Z,101416.09
2022-08-03T21:41:31.904Z,101423.50
2022-08-03T21:43:59.668Z,101417.91
2022-08-03T21:46:28.853Z,101434.63
2022-08-03T21:50:05.315Z,101439.31
2022-08-03T21:51:49.373Z,101464.81
2022-08-03T21:54:17.723Z,101478.13
2022-08-03T21:56:48.023Z,101509.44
2022-08-03T21:59:19.652Z,101551.22
2022-08-03T22:01:48.834Z,101589.41
2022-08-03T22:04:50.387Z,101610.94
2022-08-03T22:07:07.735Z,101635.16
2022-08-03T22:09:35.519Z,101660.28
2022-08-03T22:12:02.084Z,101675.91
2022-08-03T22:14:29.790Z,101694.28
2022-08-03T22:16:56.598Z,101716.59
2022-08-03T22:19:23.127Z,101736.44
2022-08-03T22:21:50.055Z,101747.97
2022-08-03T22:24:19.700Z,101767.53
2022-08-03T22:27:09.802Z,101781.97
2022-08-03T22:29:38.328Z,101792.53
2022-08-03T22:32:04.962Z,101805.50
2022-08-03T22:34:31.584Z,101833.25
2022-08-03T22:37:04.960Z,101843.31
2022-08-03T22:39:32.154Z,101855.16
2022-08-03T22:41:59.278Z,101868.75
2022-08-03T22:44:27.491Z,101873.41
2022-08-03T22:46:53.985Z,101878.03
2022-08-03T22:49:20.949Z,101884.03
2022-08-03T22:51:48.364Z,101899.03
2022-08-03T22:54:16.137Z,101907.50
2022-08-03T22:56:43.379Z,101929.16
2022-08-03T22:59:41.162Z,101953.28
2022-08-03T23:02:01.898Z,101978.28
2022-08-03T23:04:44.211Z,101990.13
2022-08-03T23:07:15.073Z,102010.56
2022-08-03T23:09:44.615Z,102033.16
2022-08-03T23:12:15.215Z,102061.03
2022-08-03T23:14:44.272Z,102078.75
2022-08-03T23:17:11.966Z,102062.25
2022-08-03T23:19:44.615Z,102063.22
2022-08-03T23:22:29.390Z,102085.09
2022-08-03T23:24:58.780Z,102087.91
2022-08-03T23:27:26.454Z,102106.72
2022-08-03T23:29:54.210Z,102122.13
2022-08-03T23:32:21.081Z,102120.75
2022-08-03T23:35:07.680Z,102103.97
2022-08-03T23:37:34.904Z,102097.63
2022-08-03T23:40:24.727Z,102100.78
2022-08-03T23:42:51.926Z,102103.47
2022-08-03T23:45:20.767Z,102133.72
2022-08-03T23:47:48.362Z,102127.72
2022-08-03T23:50:15.170Z,102148.97
2022-08-03T23:52:47.602Z,102172.13
2022-08-03T23:55:17.210Z,102214.88
2022-08-03T23:58:04.952Z,102252.53
